sensor_id;sensor_type;location;lat;lon;timestamp;P1;durP1;ratioP1;P2;durP2;ratioP2
4704;SDS011;2366;51.332;6.610;2023-04-03T00:00:25;7.60;;;6.87;;
4704;SDS011;2366;51.332;6.610;2023-04-03T00:02:50;8.20;;;6.13;;
4704;SDS011;2366;51.332;6.610;2023-04-03T00:05:16;18.67;;;8.20;;
4704;SDS011;2366;51.332;6.610;2023-04-03T00:07:41;8.53;;;7.70;;
4704;SDS011;2366;51.332;6.610;2023-04-03T00:10:07;10.40;;;8.67;;
4704;SDS011;2366;51.332;6.610;2023-04-03T00:12:33;9.32;;;8.38;;
4704;SDS011;2366;51.332;6.610;2023-04-03T00:14:58;11.73;;;8.60;;
4704;SDS011;2366;51.332;6.610;2023-04-03T00:17:23;9.57;;;8.50;;
4704;SDS011;2366;51.332;6.610;2023-04-03T00:19:49;9.40;;;8.50;;
4704;SDS011;2366;51.332;6.610;2023-04-03T00:22:14;16.23;;;9.10;;
4704;SDS011;2366;51.332;6.610;2023-04-03T00:24:40;11.93;;;9.10;;
4704;SDS011;2366;51.332;6.610;2023-04-03T00:27:05;9.23;;;8.33;;
4704;SDS011;2366;51.332;6.610;2023-04-03T00:29:31;10.25;;;9.20;;
4704;SDS011;2366;51.332;6.610;2023-04-03T00:31:57;11.20;;;9.97;;
4704;SDS011;2366;51.332;6.610;2023-04-03T00:34:22;14.90;;;9.17;;
4704;SDS011;2366;51.332;6.610;2023-04-03T00:36:47;15.50;;;9.10;;
4704;SDS011;2366;51.332;6.610;2023-04-03T00:39:12;10.70;;;8.37;;
4704;SDS011;2366;51.332;6.610;2023-04-03T00:41:38;15.70;;;10.30;;
4704;SDS011;2366;51.332;6.610;2023-04-03T00:44:19;10.97;;;9.10;;
4704;SDS011;2366;51.332;6.610;2023-04-03T00:47:00;8.27;;;7.47;;
4704;SDS011;2366;51.332;6.610;2023-04-03T00:49:28;10.82;;;8.50;;
4704;SDS011;2366;51.332;6.610;2023-04-03T00:51:54;9.00;;;8.10;;
4704;SDS011;2366;51.332;6.610;2023-04-03T00:54:20;10.70;;;9.27;;
4704;SDS011;2366;51.332;6.610;2023-04-03T00:56:46;10.47;;;9.37;;
4704;SDS011;2366;51.332;6.610;2023-04-03T00:59:14;10.68;;;7.75;;
4704;SDS011;2366;51.332;6.610;2023-04-03T01:01:47;13.88;;;9.05;;
4704;SDS011;2366;51.332;6.610;2023-04-03T01:04:33;14.80;;;9.07;;
4704;SDS011;2366;51.332;6.610;2023-04-03T01:07:02;13.38;;;10.00;;
4704;SDS011;2366;51.332;6.610;2023-04-03T01:09:31;11.57;;;9.75;;
4704;SDS011;2366;51.332;6.610;2023-04-03T01:14:50;11.43;;;8.77;;
4704;SDS011;2366;51.332;6.610;2023-04-03T01:25:21;12.90;;;9.70;;
4704;SDS011;2366;51.332;6.610;2023-04-03T01:27:46;10.67;;;9.00;;
4704;SDS011;2366;51.332;6.610;2023-04-03T01:30:12;12.00;;;8.47;;
4704;SDS011;2366;51.332;6.610;2023-04-03T01:32:41;12.73;;;9.88;;
4704;SDS011;2366;51.332;6.610;2023-04-03T01:35:10;12.73;;;9.50;;
4704;SDS011;2366;51.332;6.610;2023-04-03T01:37:36;15.80;;;9.27;;
4704;SDS011;2366;51.332;6.610;2023-04-03T01:40:02;14.33;;;9.90;;
4704;SDS011;2366;51.332;6.610;2023-04-03T01:42:28;15.00;;;11.05;;
4704;SDS011;2366;51.332;6.610;2023-04-03T01:44:54;17.88;;;11.20;;
4704;SDS011;2366;51.332;6.610;2023-04-03T01:47:19;22.17;;;13.23;;
4704;SDS011;2366;51.332;6.610;2023-04-03T01:49:45;18.03;;;12.60;;
4704;SDS011;2366;51.332;6.610;2023-04-03T01:52:10;16.57;;;11.50;;
4704;SDS011;2366;51.332;6.610;2023-04-03T01:54:36;24.03;;;13.40;;
4704;SDS011;2366;51.332;6.610;2023-04-03T01:57:01;16.40;;;12.43;;
4704;SDS011;2366;51.332;6.610;2023-04-03T01:59:26;20.27;;;13.87;;
4704;SDS011;2366;51.332;6.610;2023-04-03T02:01:53;18.08;;;12.13;;
4704;SDS011;2366;51.332;6.610;2023-04-03T02:04:18;12.90;;;11.37;;
4704;SDS011;2366;51.332;6.610;2023-04-03T02:06:43;19.50;;;11.67;;
4704;SDS011;2366;51.332;6.610;2023-04-03T02:09:09;17.53;;;11.10;;
4704;SDS011;2366;51.332;6.610;2023-04-03T02:11:34;15.17;;;10.50;;
4704;SDS011;2366;51.332;6.610;2023-04-03T02:14:00;14.40;;;9.97;;
4704;SDS011;2366;51.332;6.610;2023-04-03T02:16:25;20.50;;;10.30;;
4704;SDS011;2366;51.332;6.610;2023-04-03T02:18:50;15.17;;;8.73;;
4704;SDS011;2366;51.332;6.610;2023-04-03T02:21:16;12.60;;;8.30;;
4704;SDS011;2366;51.332;6.610;2023-04-03T02:23:41;14.43;;;7.97;;
4704;SDS011;2366;51.332;6.610;2023-04-03T02:26:08;19.27;;;8.17;;
4704;SDS011;2366;51.332;6.610;2023-04-03T02:28:35;7.95;;;5.63;;
4704;SDS011;2366;51.332;6.610;2023-04-03T02:31:00;8.23;;;5.20;;
4704;SDS011;2366;51.332;6.610;2023-04-03T02:33:26;8.30;;;5.23;;
4704;SDS011;2366;51.332;6.610;2023-04-03T02:35:54;7.97;;;5.90;;
4704;SDS011;2366;51.332;6.610;2023-04-03T02:38:20;19.95;;;5.90;;
4704;SDS011;2366;51.332;6.610;2023-04-03T02:40:46;6.87;;;4.40;;
4704;SDS011;2366;51.332;6.610;2023-04-03T02:43:11;8.20;;;5.30;;
4704;SDS011;2366;51.332;6.610;2023-04-03T02:45:37;9.37;;;4.97;;
4704;SDS011;2366;51.332;6.610;2023-04-03T02:48:02;8.90;;;4.10;;
4704;SDS011;2366;51.332;6.610;2023-04-03T02:50:28;5.10;;;4.60;;
4704;SDS011;2366;51.332;6.610;2023-04-03T02:52:53;6.73;;;4.50;;
4704;SDS011;2366;51.332;6.610;2023-04-03T02:55:19;5.83;;;3.20;;
4704;SDS011;2366;51.332;6.610;2023-04-03T02:57:44;8.30;;;4.47;;
4704;SDS011;2366;51.332;6.610;2023-04-03T03:00:09;5.37;;;3.83;;
4704;SDS011;2366;51.332;6.610;2023-04-03T03:02:35;6.10;;;3.77;;
4704;SDS011;2366;51.332;6.610;2023-04-03T03:05:01;8.90;;;3.70;;
4704;SDS011;2366;51.332;6.610;2023-04-03T03:07:26;5.73;;;3.80;;
4704;SDS011;2366;51.332;6.610;2023-04-03T03:09:51;6.77;;;3.40;;
4704;SDS011;2366;51.332;6.610;2023-04-03T03:12:17;5.20;;;3.03;;
4704;SDS011;2366;51.332;6.610;2023-04-03T03:14:46;4.70;;;3.10;;
4704;SDS011;2366;51.332;6.610;2023-04-03T03:17:12;8.90;;;3.55;;
4704;SDS011;2366;51.332;6.610;2023-04-03T03:19:38;6.03;;;3.30;;
4704;SDS011;2366;51.332;6.610;2023-04-03T03:22:03;10.90;;;4.33;;
4704;SDS011;2366;51.332;6.610;2023-04-03T03:24:29;4.83;;;4.03;;
4704;SDS011;2366;51.332;6.610;2023-04-03T03:26:54;6.80;;;4.00;;
4704;SDS011;2366;51.332;6.610;2023-04-03T03:29:20;11.80;;;3.60;;
4704;SDS011;2366;51.332;6.610;2023-04-03T03:31:45;7.67;;;3.43;;
4704;SDS011;2366;51.332;6.610;2023-04-03T03:34:11;6.33;;;4.67;;
4704;SDS011;2366;51.332;6.610;2023-04-03T03:36:36;7.63;;;3.40;;
4704;SDS011;2366;51.332;6.610;2023-04-03T03:39:02;3.83;;;3.33;;
4704;SDS011;2366;51.332;6.610;2023-04-03T03:41:27;7.47;;;4.50;;
4704;SDS011;2366;51.332;6.610;2023-04-03T03:43:53;3.10;;;2.80;;
4704;SDS011;2366;51.332;6.610;2023-04-03T03:46:18;4.50;;;3.27;;
4704;SDS011;2366;51.332;6.610;2023-04-03T03:48:43;8.13;;;3.60;;
4704;SDS011;2366;51.332;6.610;2023-04-03T03:51:09;8.20;;;3.73;;
4704;SDS011;2366;51.332;6.610;2023-04-03T03:53:34;3.80;;;3.40;;
4704;SDS011;2366;51.332;6.610;2023-04-03T03:56:00;10.03;;;4.60;;
4704;SDS011;2366;51.332;6.610;2023-04-03T03:58:25;9.03;;;3.80;;
4704;SDS011;2366;51.332;6.610;2023-04-03T04:00:51;6.23;;;3.43;;
4704;SDS011;2366;51.332;6.610;2023-04-03T04:03:16;7.13;;;3.30;;
4704;SDS011;2366;51.332;6.610;2023-04-03T04:05:42;3.43;;;3.13;;
4704;SDS011;2366;51.332;6.610;2023-04-03T04:08:08;7.90;;;4.63;;
4704;SDS011;2366;51.332;6.610;2023-04-03T04:10:33;4.10;;;3.70;;
4704;SDS011;2366;51.332;6.610;2023-04-03T04:13:00;6.93;;;2.47;;
4704;SDS011;2366;51.332;6.610;2023-04-03T04:15:25;5.57;;;3.27;;
4704;SDS011;2366;51.332;6.610;2023-04-03T04:17:51;9.07;;;3.40;;
4704;SDS011;2366;51.332;6.610;2023-04-03T04:20:18;12.88;;;3.80;;
4704;SDS011;2366;51.332;6.610;2023-04-03T04:22:43;14.40;;;7.00;;
4704;SDS011;2366;51.332;6.610;2023-04-03T04:25:09;23.07;;;8.43;;
4704;SDS011;2366;51.332;6.610;2023-04-03T04:27:34;23.50;;;8.60;;
4704;SDS011;2366;51.332;6.610;2023-04-03T04:30:00;24.87;;;7.80;;
4704;SDS011;2366;51.332;6.610;2023-04-03T04:32:26;11.20;;;6.60;;
4704;SDS011;2366;51.332;6.610;2023-04-03T04:34:51;10.20;;;4.37;;
4704;SDS011;2366;51.332;6.610;2023-04-03T04:37:16;11.33;;;3.73;;
4704;SDS011;2366;51.332;6.610;2023-04-03T04:39:42;16.40;;;4.47;;
4704;SDS011;2366;51.332;6.610;2023-04-03T04:42:07;9.70;;;5.67;;
4704;SDS011;2366;51.332;6.610;2023-04-03T04:44:37;10.48;;;4.80;;
4704;SDS011;2366;51.332;6.610;2023-04-03T04:47:05;20.33;;;6.78;;
4704;SDS011;2366;51.332;6.610;2023-04-03T04:49:31;16.30;;;6.57;;
4704;SDS011;2366;51.332;6.610;2023-04-03T04:51:57;13.23;;;4.93;;
4704;SDS011;2366;51.332;6.610;2023-04-03T04:54:22;11.50;;;5.13;;
4704;SDS011;2366;51.332;6.610;2023-04-03T04:56:47;10.47;;;4.00;;
4704;SDS011;2366;51.332;6.610;2023-04-03T04:59:13;13.10;;;5.20;;
4704;SDS011;2366;51.332;6.610;2023-04-03T05:01:38;7.43;;;4.03;;
4704;SDS011;2366;51.332;6.610;2023-04-03T05:04:04;5.97;;;3.60;;
4704;SDS011;2366;51.332;6.610;2023-04-03T05:06:30;7.37;;;4.43;;
4704;SDS011;2366;51.332;6.610;2023-04-03T05:08:56;10.15;;;4.50;;
4704;SDS011;2366;51.332;6.610;2023-04-03T05:11:22;12.82;;;3.95;;
4704;SDS011;2366;51.332;6.610;2023-04-03T05:13:48;12.37;;;5.77;;
4704;SDS011;2366;51.332;6.610;2023-04-03T05:16:13;13.90;;;6.00;;
4704;SDS011;2366;51.332;6.610;2023-04-03T05:18:38;20.43;;;7.27;;
4704;SDS011;2366;51.332;6.610;2023-04-03T05:21:04;13.63;;;6.67;;
4704;SDS011;2366;51.332;6.610;2023-04-03T05:23:29;8.00;;;4.60;;
4704;SDS011;2366;51.332;6.610;2023-04-03T05:25:55;9.83;;;5.47;;
4704;SDS011;2366;51.332;6.610;2023-04-03T05:28:20;10.10;;;5.13;;
4704;SDS011;2366;51.332;6.610;2023-04-03T05:30:52;13.53;;;3.70;;
4704;SDS011;2366;51.332;6.610;2023-04-03T05:33:21;13.43;;;4.25;;
4704;SDS011;2366;51.332;6.610;2023-04-03T05:35:47;11.93;;;4.30;;
4704;SDS011;2366;51.332;6.610;2023-04-03T05:38:12;15.30;;;5.27;;
4704;SDS011;2366;51.332;6.610;2023-04-03T05:40:37;15.80;;;5.80;;
4704;SDS011;2366;51.332;6.610;2023-04-03T05:43:03;10.77;;;5.40;;
4704;SDS011;2366;51.332;6.610;2023-04-03T05:45:28;12.27;;;5.37;;
4704;SDS011;2366;51.332;6.610;2023-04-03T05:47:54;12.73;;;4.30;;
4704;SDS011;2366;51.332;6.610;2023-04-03T05:50:19;14.40;;;6.90;;
4704;SDS011;2366;51.332;6.610;2023-04-03T05:52:46;17.50;;;7.10;;
4704;SDS011;2366;51.332;6.610;2023-04-03T05:55:14;9.48;;;4.43;;
4704;SDS011;2366;51.332;6.610;2023-04-03T05:57:40;12.35;;;4.53;;
4704;SDS011;2366;51.332;6.610;2023-04-03T06:00:06;11.00;;;5.67;;
4704;SDS011;2366;51.332;6.610;2023-04-03T06:02:34;12.20;;;3.83;;
4704;SDS011;2366;51.332;6.610;2023-04-03T06:05:01;13.77;;;4.82;;
4704;SDS011;2366;51.332;6.610;2023-04-03T06:07:27;10.60;;;4.38;;
4704;SDS011;2366;51.332;6.610;2023-04-03T06:09:54;8.60;;;4.85;;
4704;SDS011;2366;51.332;6.610;2023-04-03T06:12:21;13.48;;;5.30;;
4704;SDS011;2366;51.332;6.610;2023-04-03T06:14:47;13.18;;;5.32;;
4704;SDS011;2366;51.332;6.610;2023-04-03T06:17:14;8.30;;;4.43;;
4704;SDS011;2366;51.332;6.610;2023-04-03T06:19:40;10.55;;;3.60;;
4704;SDS011;2366;51.332;6.610;2023-04-03T06:22:06;9.90;;;4.87;;
4704;SDS011;2366;51.332;6.610;2023-04-03T06:24:32;9.43;;;3.13;;
4704;SDS011;2366;51.332;6.610;2023-04-03T06:26:57;6.77;;;2.60;;
4704;SDS011;2366;51.332;6.610;2023-04-03T06:29:23;3.87;;;2.00;;
4704;SDS011;2366;51.332;6.610;2023-04-03T06:31:49;4.77;;;2.53;;
4704;SDS011;2366;51.332;6.610;2023-04-03T06:34:15;7.57;;;3.78;;
4704;SDS011;2366;51.332;6.610;2023-04-03T06:36:41;5.45;;;2.60;;
4704;SDS011;2366;51.332;6.610;2023-04-03T06:39:08;10.98;;;3.55;;
4704;SDS011;2366;51.332;6.610;2023-04-03T06:41:38;9.88;;;3.50;;
4704;SDS011;2366;51.332;6.610;2023-04-03T06:44:03;5.47;;;2.83;;
4704;SDS011;2366;51.332;6.610;2023-04-03T06:46:29;6.40;;;3.37;;
4704;SDS011;2366;51.332;6.610;2023-04-03T06:48:54;5.27;;;3.00;;
4704;SDS011;2366;51.332;6.610;2023-04-03T06:51:27;7.33;;;2.93;;
4704;SDS011;2366;51.332;6.610;2023-04-03T06:53:55;11.70;;;3.72;;
4704;SDS011;2366;51.332;6.610;2023-04-03T06:56:22;5.20;;;2.80;;
4704;SDS011;2366;51.332;6.610;2023-04-03T06:58:48;4.72;;;2.60;;
4704;SDS011;2366;51.332;6.610;2023-04-03T07:01:16;10.40;;;2.90;;
4704;SDS011;2366;51.332;6.610;2023-04-03T07:03:44;8.00;;;2.85;;
4704;SDS011;2366;51.332;6.610;2023-04-03T07:06:11;5.32;;;2.90;;
4704;SDS011;2366;51.332;6.610;2023-04-03T07:08:37;7.03;;;2.92;;
4704;SDS011;2366;51.332;6.610;2023-04-03T07:11:04;6.93;;;2.73;;
4704;SDS011;2366;51.332;6.610;2023-04-03T07:13:30;5.75;;;3.58;;
4704;SDS011;2366;51.332;6.610;2023-04-03T07:15:56;12.02;;;3.65;;
4704;SDS011;2366;51.332;6.610;2023-04-03T07:18:21;5.50;;;2.47;;
4704;SDS011;2366;51.332;6.610;2023-04-03T07:20:47;6.23;;;2.80;;
4704;SDS011;2366;51.332;6.610;2023-04-03T07:23:12;8.73;;;3.40;;
4704;SDS011;2366;51.332;6.610;2023-04-03T07:25:45;11.40;;;3.87;;
4704;SDS011;2366;51.332;6.610;2023-04-03T07:28:12;7.20;;;3.28;;
4704;SDS011;2366;51.332;6.610;2023-04-03T07:30:46;4.70;;;2.40;;
4704;SDS011;2366;51.332;6.610;2023-04-03T07:33:12;10.50;;;4.28;;
4704;SDS011;2366;51.332;6.610;2023-04-03T07:35:39;4.13;;;2.90;;
4704;SDS011;2366;51.332;6.610;2023-04-03T07:38:06;10.32;;;3.65;;
4704;SDS011;2366;51.332;6.610;2023-04-03T07:40:31;7.60;;;3.40;;
4704;SDS011;2366;51.332;6.610;2023-04-03T07:42:58;6.80;;;3.88;;
4704;SDS011;2366;51.332;6.610;2023-04-03T07:45:24;5.50;;;2.83;;
4704;SDS011;2366;51.332;6.610;2023-04-03T07:47:50;11.30;;;2.93;;
4704;SDS011;2366;51.332;6.610;2023-04-03T07:50:16;14.02;;;7.20;;
4704;SDS011;2366;51.332;6.610;2023-04-03T07:52:42;14.20;;;7.85;;
4704;SDS011;2366;51.332;6.610;2023-04-03T07:55:08;18.33;;;9.83;;
4704;SDS011;2366;51.332;6.610;2023-04-03T07:57:33;9.10;;;4.27;;
4704;SDS011;2366;51.332;6.610;2023-04-03T08:00:00;7.47;;;2.50;;
4704;SDS011;2366;51.332;6.610;2023-04-03T08:02:26;9.43;;;3.03;;
4704;SDS011;2366;51.332;6.610;2023-04-03T08:04:51;6.30;;;3.10;;
4704;SDS011;2366;51.332;6.610;2023-04-03T08:07:17;3.60;;;2.93;;
4704;SDS011;2366;51.332;6.610;2023-04-03T08:09:42;7.90;;;4.13;;
4704;SDS011;2366;51.332;6.610;2023-04-03T08:12:09;5.53;;;2.70;;
4704;SDS011;2366;51.332;6.610;2023-04-03T08:14:36;7.05;;;3.67;;
4704;SDS011;2366;51.332;6.610;2023-04-03T08:17:02;8.27;;;2.95;;
4704;SDS011;2366;51.332;6.610;2023-04-03T08:19:30;6.82;;;3.25;;
4704;SDS011;2366;51.332;6.610;2023-04-03T08:21:55;5.57;;;2.97;;
4704;SDS011;2366;51.332;6.610;2023-04-03T08:24:22;5.83;;;2.43;;
4704;SDS011;2366;51.332;6.610;2023-04-03T08:26:48;4.83;;;1.73;;
4704;SDS011;2366;51.332;6.610;2023-04-03T08:29:13;5.63;;;2.40;;
4704;SDS011;2366;51.332;6.610;2023-04-03T08:31:38;3.90;;;2.10;;
4704;SDS011;2366;51.332;6.610;2023-04-03T08:34:04;7.40;;;2.33;;
4704;SDS011;2366;51.332;6.610;2023-04-03T08:36:30;6.67;;;2.60;;
4704;SDS011;2366;51.332;6.610;2023-04-03T08:38:56;5.50;;;2.27;;
4704;SDS011;2366;51.332;6.610;2023-04-03T08:41:38;3.33;;;2.00;;
4704;SDS011;2366;51.332;6.610;2023-04-03T08:44:20;4.27;;;2.03;;
4704;SDS011;2366;51.332;6.610;2023-04-03T08:55:31;4.60;;;2.10;;
4704;SDS011;2366;51.332;6.610;2023-04-03T08:58:03;5.70;;;2.60;;
4704;SDS011;2366;51.332;6.610;2023-04-03T09:03:21;5.53;;;2.13;;
4704;SDS011;2366;51.332;6.610;2023-04-03T09:06:03;6.90;;;1.90;;
4704;SDS011;2366;51.332;6.610;2023-04-03T09:08:45;9.20;;;2.70;;
4704;SDS011;2366;51.332;6.610;2023-04-03T09:11:23;5.23;;;2.17;;
4704;SDS011;2366;51.332;6.610;2023-04-03T09:13:59;4.60;;;1.00;;
4704;SDS011;2366;51.332;6.610;2023-04-03T09:16:31;4.10;;;1.80;;
4704;SDS011;2366;51.332;6.610;2023-04-03T09:21:56;2.07;;;1.57;;
4704;SDS011;2366;51.332;6.610;2023-04-03T09:24:24;6.00;;;1.90;;
4704;SDS011;2366;51.332;6.610;2023-04-03T09:26:58;3.33;;;1.25;;
4704;SDS011;2366;51.332;6.610;2023-04-03T09:29:28;4.78;;;1.83;;
4704;SDS011;2366;51.332;6.610;2023-04-03T09:31:58;4.80;;;1.50;;
4704;SDS011;2366;51.332;6.610;2023-04-03T09:34:26;2.30;;;1.60;;
4704;SDS011;2366;51.332;6.610;2023-04-03T09:36:54;3.00;;;1.60;;
4704;SDS011;2366;51.332;6.610;2023-04-03T09:39:23;6.07;;;1.85;;
4704;SDS011;2366;51.332;6.610;2023-04-03T09:42:00;1.58;;;0.90;;
4704;SDS011;2366;51.332;6.610;2023-04-03T09:44:35;9.18;;;1.33;;
4704;SDS011;2366;51.332;6.610;2023-04-03T09:49:48;1.63;;;1.20;;
4704;SDS011;2366;51.332;6.610;2023-04-03T09:52:22;0.77;;;0.70;;
4704;SDS011;2366;51.332;6.610;2023-04-03T09:54:49;4.28;;;1.50;;
4704;SDS011;2366;51.332;6.610;2023-04-03T09:57:15;4.47;;;1.20;;
4704;SDS011;2366;51.332;6.610;2023-04-03T09:59:45;5.60;;;1.33;;
4704;SDS011;2366;51.332;6.610;2023-04-03T10:04:37;1.60;;;1.30;;
4704;SDS011;2366;51.332;6.610;2023-04-03T10:07:04;3.65;;;1.60;;
4704;SDS011;2366;51.332;6.610;2023-04-03T10:10:02;5.57;;;1.60;;
4704;SDS011;2366;51.332;6.610;2023-04-03T10:12:42;3.30;;;1.33;;
4704;SDS011;2366;51.332;6.610;2023-04-03T10:15:11;3.67;;;1.10;;
4704;SDS011;2366;51.332;6.610;2023-04-03T10:17:50;1.45;;;1.35;;
4704;SDS011;2366;51.332;6.610;2023-04-03T10:41:31;1.60;;;0.98;;
4704;SDS011;2366;51.332;6.610;2023-04-03T10:44:23;3.10;;;1.63;;
4704;SDS011;2366;51.332;6.610;2023-04-03T10:46:52;2.30;;;1.42;;
4704;SDS011;2366;51.332;6.610;2023-04-03T10:49:27;2.88;;;1.50;;
4704;SDS011;2366;51.332;6.610;2023-04-03T10:54:49;3.13;;;1.50;;
4704;SDS011;2366;51.332;6.610;2023-04-03T10:57:22;2.90;;;2.00;;
4704;SDS011;2366;51.332;6.610;2023-04-03T10:59:50;2.47;;;1.30;;
4704;SDS011;2366;51.332;6.610;2023-04-03T11:02:30;6.20;;;1.67;;
4704;SDS011;2366;51.332;6.610;2023-04-03T11:05:01;3.15;;;1.60;;
4704;SDS011;2366;51.332;6.610;2023-04-03T11:07:32;3.40;;;1.95;;
4704;SDS011;2366;51.332;6.610;2023-04-03T11:10:09;2.20;;;1.73;;
4704;SDS011;2366;51.332;6.610;2023-04-03T11:12:48;3.40;;;1.63;;
4704;SDS011;2366;51.332;6.610;2023-04-03T11:15:18;3.38;;;1.33;;
4704;SDS011;2366;51.332;6.610;2023-04-03T11:18:22;3.40;;;1.35;;
4704;SDS011;2366;51.332;6.610;2023-04-03T11:21:00;10.30;;;1.48;;
4704;SDS011;2366;51.332;6.610;2023-04-03T11:23:39;3.20;;;1.52;;
4704;SDS011;2366;51.332;6.610;2023-04-03T11:26:10;2.15;;;0.82;;
4704;SDS011;2366;51.332;6.610;2023-04-03T11:28:38;2.70;;;1.58;;
4704;SDS011;2366;51.332;6.610;2023-04-03T11:36:41;2.50;;;1.45;;
4704;SDS011;2366;51.332;6.610;2023-04-03T11:42:24;2.05;;;1.42;;
4704;SDS011;2366;51.332;6.610;2023-04-03T11:47:48;2.25;;;1.63;;
4704;SDS011;2366;51.332;6.610;2023-04-03T11:53:01;1.98;;;1.38;;
4704;SDS011;2366;51.332;6.610;2023-04-03T12:00:58;3.20;;;1.67;;
4704;SDS011;2366;51.332;6.610;2023-04-03T12:05:55;4.32;;;1.35;;
4704;SDS011;2366;51.332;6.610;2023-04-03T12:16:52;4.73;;;1.73;;
4704;SDS011;2366;51.332;6.610;2023-04-03T12:24:24;1.55;;;1.40;;
4704;SDS011;2366;51.332;6.610;2023-04-03T12:29:46;1.20;;;1.10;;
4704;SDS011;2366;51.332;6.610;2023-04-03T12:32:35;6.25;;;2.40;;
4704;SDS011;2366;51.332;6.610;2023-04-03T12:37:51;2.45;;;1.50;;
4704;SDS011;2366;51.332;6.610;2023-04-03T12:45:56;5.95;;;1.52;;
4704;SDS011;2366;51.332;6.610;2023-04-03T12:48:39;1.88;;;0.90;;
4704;SDS011;2366;51.332;6.610;2023-04-03T12:54:04;4.20;;;1.70;;
4704;SDS011;2366;51.332;6.610;2023-04-03T12:56:43;1.30;;;1.20;;
4704;SDS011;2366;51.332;6.610;2023-04-03T12:59:22;2.57;;;1.70;;
4704;SDS011;2366;51.332;6.610;2023-04-03T13:01:53;2.90;;;1.20;;
4704;SDS011;2366;51.332;6.610;2023-04-03T13:04:20;5.25;;;1.80;;
4704;SDS011;2366;51.332;6.610;2023-04-03T13:06:47;5.68;;;1.95;;
4704;SDS011;2366;51.332;6.610;2023-04-03T13:09:23;2.50;;;1.77;;
4704;SDS011;2366;51.332;6.610;2023-04-03T13:14:28;2.70;;;1.60;;
4704;SDS011;2366;51.332;6.610;2023-04-03T13:16:56;1.65;;;1.30;;
4704;SDS011;2366;51.332;6.610;2023-04-03T13:19:23;1.98;;;1.73;;
4704;SDS011;2366;51.332;6.610;2023-04-03T13:21:51;2.53;;;1.42;;
4704;SDS011;2366;51.332;6.610;2023-04-03T13:24:42;5.25;;;1.55;;
4704;SDS011;2366;51.332;6.610;2023-04-03T13:27:11;2.22;;;1.35;;
4704;SDS011;2366;51.332;6.610;2023-04-03T13:29:38;4.20;;;1.67;;
4704;SDS011;2366;51.332;6.610;2023-04-03T13:32:05;2.10;;;1.63;;
4704;SDS011;2366;51.332;6.610;2023-04-03T13:34:37;3.10;;;2.40;;
4704;SDS011;2366;51.332;6.610;2023-04-03T13:37:06;2.38;;;1.67;;
4704;SDS011;2366;51.332;6.610;2023-04-03T13:39:39;6.13;;;2.55;;
4704;SDS011;2366;51.332;6.610;2023-04-03T13:42:15;4.60;;;1.95;;
4704;SDS011;2366;51.332;6.610;2023-04-03T13:44:46;2.72;;;1.50;;
4704;SDS011;2366;51.332;6.610;2023-04-03T13:47:17;3.50;;;1.97;;
4704;SDS011;2366;51.332;6.610;2023-04-03T13:49:45;2.63;;;1.27;;
4704;SDS011;2366;51.332;6.610;2023-04-03T13:52:30;5.10;;;2.58;;
4704;SDS011;2366;51.332;6.610;2023-04-03T13:55:53;7.53;;;2.08;;
4704;SDS011;2366;51.332;6.610;2023-04-03T13:57:51;1.40;;;1.30;;
4704;SDS011;2366;51.332;6.610;2023-04-03T14:02:59;3.00;;;1.23;;
4704;SDS011;2366;51.332;6.610;2023-04-03T14:05:25;2.72;;;1.33;;
4704;SDS011;2366;51.332;6.610;2023-04-03T14:07:52;1.37;;;1.27;;
4704;SDS011;2366;51.332;6.610;2023-04-03T14:10:19;1.88;;;1.38;;
4704;SDS011;2366;51.332;6.610;2023-04-03T14:12:45;7.03;;;1.93;;
4704;SDS011;2366;51.332;6.610;2023-04-03T14:15:31;1.73;;;1.40;;
4704;SDS011;2366;51.332;6.610;2023-04-03T14:17:56;2.03;;;1.45;;
4704;SDS011;2366;51.332;6.610;2023-04-03T14:20:23;2.22;;;1.55;;
4704;SDS011;2366;51.332;6.610;2023-04-03T14:22:51;2.78;;;1.52;;
4704;SDS011;2366;51.332;6.610;2023-04-03T14:25:19;1.40;;;1.30;;
4704;SDS011;2366;51.332;6.610;2023-04-03T14:27:46;3.42;;;1.77;;
4704;SDS011;2366;51.332;6.610;2023-04-03T14:30:15;1.65;;;1.13;;
4704;SDS011;2366;51.332;6.610;2023-04-03T14:32:52;4.72;;;1.85;;
4704;SDS011;2366;51.332;6.610;2023-04-03T14:35:17;2.33;;;1.20;;
4704;SDS011;2366;51.332;6.610;2023-04-03T14:37:44;2.40;;;1.50;;
4704;SDS011;2366;51.332;6.610;2023-04-03T14:40:11;3.10;;;1.55;;
4704;SDS011;2366;51.332;6.610;2023-04-03T14:42:38;2.38;;;1.38;;
4704;SDS011;2366;51.332;6.610;2023-04-03T14:45:05;4.07;;;2.20;;
4704;SDS011;2366;51.332;6.610;2023-04-03T14:47:36;2.47;;;1.40;;
4704;SDS011;2366;51.332;6.610;2023-04-03T14:50:06;3.25;;;1.42;;
4704;SDS011;2366;51.332;6.610;2023-04-03T14:52:34;5.10;;;1.77;;
4704;SDS011;2366;51.332;6.610;2023-04-03T14:55:01;3.72;;;1.67;;
4704;SDS011;2366;51.332;6.610;2023-04-03T14:57:28;8.35;;;1.63;;
4704;SDS011;2366;51.332;6.610;2023-04-03T14:59:55;4.57;;;1.80;;
4704;SDS011;2366;51.332;6.610;2023-04-03T15:04:46;1.77;;;1.40;;
4704;SDS011;2366;51.332;6.610;2023-04-03T15:07:11;1.30;;;1.20;;
4704;SDS011;2366;51.332;6.610;2023-04-03T15:09:36;3.77;;;2.10;;
4704;SDS011;2366;51.332;6.610;2023-04-03T15:12:02;4.53;;;1.67;;
4704;SDS011;2366;51.332;6.610;2023-04-03T15:14:27;3.60;;;1.80;;
4704;SDS011;2366;51.332;6.610;2023-04-03T15:16:53;3.57;;;2.17;;
4704;SDS011;2366;51.332;6.610;2023-04-03T15:19:18;2.27;;;1.33;;
4704;SDS011;2366;51.332;6.610;2023-04-03T15:21:43;1.37;;;1.13;;
4704;SDS011;2366;51.332;6.610;2023-04-03T15:24:09;4.37;;;2.23;;
4704;SDS011;2366;51.332;6.610;2023-04-03T15:26:35;2.90;;;1.35;;
4704;SDS011;2366;51.332;6.610;2023-04-03T15:29:00;2.60;;;2.00;;
4704;SDS011;2366;51.332;6.610;2023-04-03T15:31:26;6.30;;;2.03;;
4704;SDS011;2366;51.332;6.610;2023-04-03T15:33:52;3.03;;;1.75;;
4704;SDS011;2366;51.332;6.610;2023-04-03T15:36:17;6.83;;;2.67;;
4704;SDS011;2366;51.332;6.610;2023-04-03T15:38:43;5.53;;;1.60;;
4704;SDS011;2366;51.332;6.610;2023-04-03T15:41:08;3.07;;;1.57;;
4704;SDS011;2366;51.332;6.610;2023-04-03T15:43:33;2.00;;;1.53;;
4704;SDS011;2366;51.332;6.610;2023-04-03T15:46:00;4.18;;;1.55;;
4704;SDS011;2366;51.332;6.610;2023-04-03T15:48:26;5.78;;;1.75;;
4704;SDS011;2366;51.332;6.610;2023-04-03T15:50:52;2.17;;;1.92;;
4704;SDS011;2366;51.332;6.610;2023-04-03T15:53:18;2.83;;;2.10;;
4704;SDS011;2366;51.332;6.610;2023-04-03T15:55:44;2.53;;;1.63;;
4704;SDS011;2366;51.332;6.610;2023-04-03T15:58:09;4.17;;;1.70;;
4704;SDS011;2366;51.332;6.610;2023-04-03T16:00:35;3.40;;;1.40;;
4704;SDS011;2366;51.332;6.610;2023-04-03T16:03:05;2.17;;;1.40;;
4704;SDS011;2366;51.332;6.610;2023-04-03T16:05:35;3.75;;;1.60;;
4704;SDS011;2366;51.332;6.610;2023-04-03T16:08:02;5.32;;;1.90;;
4704;SDS011;2366;51.332;6.610;2023-04-03T16:10:28;3.17;;;1.30;;
4704;SDS011;2366;51.332;6.610;2023-04-03T16:12:54;4.32;;;1.65;;
4704;SDS011;2366;51.332;6.610;2023-04-03T16:15:20;1.50;;;1.40;;
4704;SDS011;2366;51.332;6.610;2023-04-03T16:17:45;2.63;;;1.83;;
4704;SDS011;2366;51.332;6.610;2023-04-03T16:20:13;3.65;;;1.95;;
4704;SDS011;2366;51.332;6.610;2023-04-03T16:22:39;5.10;;;2.25;;
4704;SDS011;2366;51.332;6.610;2023-04-03T16:25:05;2.88;;;1.30;;
4704;SDS011;2366;51.332;6.610;2023-04-03T16:27:32;2.22;;;1.48;;
4704;SDS011;2366;51.332;6.610;2023-04-03T16:29:57;3.10;;;1.93;;
4704;SDS011;2366;51.332;6.610;2023-04-03T16:32:23;1.70;;;1.30;;
4704;SDS011;2366;51.332;6.610;2023-04-03T16:34:51;3.85;;;1.40;;
4704;SDS011;2366;51.332;6.610;2023-04-03T16:37:17;8.07;;;2.37;;
4704;SDS011;2366;51.332;6.610;2023-04-03T16:39:43;2.30;;;1.58;;
4704;SDS011;2366;51.332;6.610;2023-04-03T16:42:08;4.63;;;1.47;;
4704;SDS011;2366;51.332;6.610;2023-04-03T16:44:34;5.95;;;1.50;;
4704;SDS011;2366;51.332;6.610;2023-04-03T16:47:00;5.38;;;1.50;;
4704;SDS011;2366;51.332;6.610;2023-04-03T16:49:26;4.90;;;2.00;;
4704;SDS011;2366;51.332;6.610;2023-04-03T16:51:57;18.75;;;2.40;;
4704;SDS011;2366;51.332;6.610;2023-04-03T16:54:22;5.53;;;1.43;;
4704;SDS011;2366;51.332;6.610;2023-04-03T16:56:47;7.10;;;2.00;;
4704;SDS011;2366;51.332;6.610;2023-04-03T16:59:13;5.63;;;1.67;;
4704;SDS011;2366;51.332;6.610;2023-04-03T17:01:38;2.07;;;1.17;;
4704;SDS011;2366;51.332;6.610;2023-04-03T17:04:03;4.57;;;1.73;;
4704;SDS011;2366;51.332;6.610;2023-04-03T17:06:29;5.70;;;1.77;;